DIRECCIÓN GENERAL DE AERONÁUTICA CIVIL
DIRECCIÓN METEOROLÓGICA DE CHILE
INFORMACIÓN METAR Y TAF

FIR PUERTO MONTT

Estación: SCQP
METAR SCQP 042200Z 08005KT 050V140 3000 RA FEW019 BKN035 OVC045 05/05 Q1011=

TAF SCQP 042215Z 0500/0524 01010KT 9999 BKN020 TN06/0500Z TX11/0516Z TEMPO 0500/0502 5000 -SHRA=

Estación: SCVD
METAR SCVD 042200Z 05009KT 7000 RA OVC019 07/06 Q1009=

TAF SCVD 041623Z 0418/0506 36010KT 9999 SCT020 TN05/0418Z TX09/0506Z BECMG 0421/0423 33007KT 5000 -RA SCT010 OVC020=

Estación: SCJO
METAR SCJO 042200Z 02008KT 330V070 9999 SCT020 OVC030 08/05 Q1008=

TAF SCJO 041624Z 0418/0506 36010KT 9999 SCT020 TN05/0418Z TX09/0506Z BECMG 0421/0423 5000 -RA SCT010 OVC020=

Estación: SCTE
METAR SCTE 042200Z 01021KT 5000 VCSH BKN015 OVC030 07/05 Q1007 NOSIG=

TAF SCTE 042217Z 0500/0524 36020KT 9999 BKN030 TN07/0500Z TX09/0516Z TEMPO 0500/0502 5000 -SHRA OVC020=

Estación: SCPQ
METAR SCPQ 042100Z AUTO 01011KT 2100 -RA OVC003 05/05 Q1004=

TAF SCPQ 041638Z 0418/0506 36010KT 9999 SCT020 TN06/0418Z TX09/0506Z BECMG 0421/0423 5000 -RA SCT007 OVC015=

Estación: SCON
METAR SCON 042200Z AUTO 03009KT 340V080 3800 -RA ///013 07/06 Q1003=

TAF SCON NIL=

Estación: SCTN
SPECI SCTN 042222Z AUTO 02004KT 320V100 9000 RA FEW009 SCT012 OVC031 07/06 Q1005=

TAF SCTN 041630Z 0418/0506 30008KT 9999 SCT020 TN03/0419Z TX08/0506Z BECMG 0421/0423 5000 -RA OVC015=

Estación: SCFT
METAR SCFT 042200Z AUTO VRB02KT 9999 00/M01 Q1006=

NIL=

Estación: SCAP
METAR SCAP 042200Z AUTO VRB01KT //// // NSC 02/00 Q1011=

NIL=

Estación: SCMK
METAR SCMK 041600Z 01015KT 9999 SCT018 BKN200 08/05 Q1006=

TAF SCMK 041631Z 0418/0506 36015KT 9999 SCT015 TN08/0419Z TX09/0506Z BECMG 0421/0423 5000 -RA SCT007 OVC015=

Estación: SCAS
METAR SCAS 031900Z 00000KT CAVOK 06/02 Q1023=

NIL=

Estación: SCCY
METAR SCCY 042200Z 00000KT CAVOK M01/M02 Q1002=

TAF SCCY 041634Z 0418/0506 34005KT 9999 SCT015 TNM01/0419Z TX02/0506Z BECMG 0421/0423 BKN030=

Estación: SCBA
METAR SCBA 042200Z AUTO 31002KT CAVOK M02/M04 Q1001=

TAF SCBA 042218Z 0500/0524 30005KT 9999 BKN040 TNM03/0510Z TX03/0516Z=

Estación: SCCC
METAR SCCC 031900Z 10004KT CAVOK 09/M05 Q1018=

NIL=

Estación: SCHR
METAR SCHR 031800Z 31007KT 9999 FEW040 01/M04 Q1018=

TAF SCHR 031050Z 0312/0400 30005KT CAVOK TNM03/0312Z TX04/0318Z TEMPO 0312/0316 33005KT FEW040 BECMG 0317/0319 03005KT=


Volver